createdAt,value
2022-10-15T00:00:18.765Z,0.00
2022-10-15T00:01:18.812Z,0.00
2022-10-15T00:02:18.699Z,0.00
2022-10-15T00:03:18.684Z,0.00
2022-10-15T00:04:18.664Z,0.00
2022-10-15T00:05:18.843Z,0.00
2022-10-15T00:06:18.756Z,0.00
2022-10-15T00:07:18.645Z,0.00
2022-10-15T00:08:18.635Z,0.00
2022-10-15T00:09:18.617Z,0.00
2022-10-15T00:10:18.606Z,0.00
2022-10-15T00:11:18.576Z,0.00
2022-10-15T00:12:18.596Z,0.00
2022-10-15T00:13:18.558Z,0.00
2022-10-15T00:14:18.541Z,0.00
2022-10-15T00:15:18.528Z,0.00
2022-10-15T00:16:18.521Z,0.00
2022-10-15T00:17:18.507Z,0.00
2022-10-15T00:18:18.610Z,0.00
2022-10-15T00:19:18.481Z,0.00
2022-10-15T00:20:18.480Z,0.00
2022-10-15T00:21:18.445Z,0.00
2022-10-15T00:22:18.441Z,0.00
2022-10-15T00:23:18.430Z,0.00
2022-10-15T00:24:18.450Z,0.00
2022-10-15T00:25:18.413Z,0.00
2022-10-15T00:26:18.394Z,0.00
2022-10-15T00:27:18.391Z,0.00
2022-10-15T00:28:18.461Z,0.00
2022-10-15T00:29:18.354Z,0.00
2022-10-15T00:30:18.446Z,0.00
2022-10-15T00:31:18.315Z,0.00
2022-10-15T00:32:18.305Z,0.00
2022-10-15T00:33:18.287Z,0.00
2022-10-15T00:34:18.277Z,0.00
2022-10-15T00:35:18.276Z,0.00
2022-10-15T00:36:18.276Z,0.00
2022-10-15T00:37:18.248Z,0.00
2022-10-15T00:38:18.236Z,0.00
2022-10-15T00:39:18.228Z,0.00
2022-10-15T00:40:18.207Z,0.00
2022-10-15T00:41:18.187Z,0.00
2022-10-15T00:42:18.200Z,0.00
2022-10-15T00:43:19.128Z,0.00
2022-10-15T00:44:18.418Z,0.00
2022-10-15T00:45:18.137Z,0.00
2022-10-15T00:46:18.134Z,0.00
2022-10-15T00:47:18.140Z,0.00
2022-10-15T00:48:18.265Z,0.00
2022-10-15T00:49:18.351Z,0.00
2022-10-15T00:50:18.082Z,0.00
2022-10-15T00:51:18.065Z,0.00
2022-10-15T00:52:18.045Z,0.00
2022-10-15T00:53:18.030Z,0.00
2022-10-15T00:54:18.145Z,0.00
2022-10-15T00:55:18.015Z,0.00
2022-10-15T00:56:18.003Z,0.00
2022-10-15T00:57:17.981Z,0.00
2022-10-15T00:58:18.001Z,0.00
2022-10-15T00:59:17.960Z,0.00
2022-10-15T01:00:18.056Z,0.00
2022-10-15T01:01:17.969Z,0.00
2022-10-15T01:02:17.944Z,0.00
2022-10-15T01:03:17.918Z,0.00
2022-10-15T01:04:18.155Z,0.00
2022-10-15T01:05:17.882Z,0.00
2022-10-15T01:06:17.988Z,0.00
2022-10-15T01:07:17.897Z,0.00
2022-10-15T01:08:17.888Z,0.00
2022-10-15T01:09:17.850Z,0.00
2022-10-15T01:10:17.828Z,0.00
2022-10-15T01:11:17.821Z,0.00
2022-10-15T01:12:17.910Z,0.00
2022-10-15T01:13:17.780Z,0.00
2022-10-15T01:14:17.767Z,0.00
2022-10-15T01:15:17.763Z,0.00
2022-10-15T01:16:17.736Z,0.00
2022-10-15T01:17:17.726Z,0.00
2022-10-15T01:18:17.842Z,0.00
2022-10-15T01:19:17.701Z,0.00
2022-10-15T01:20:18.174Z,0.00
2022-10-15T01:21:17.682Z,0.00
2022-10-15T01:22:17.670Z,0.00
2022-10-15T01:23:19.307Z,0.00
2022-10-15T01:24:18.027Z,0.00
2022-10-15T01:26:17.617Z,0.00
2022-10-15T01:27:17.599Z,0.00
2022-10-15T01:28:17.670Z,0.00
2022-10-15T01:29:17.577Z,0.00
2022-10-15T01:30:17.595Z,0.00
2022-10-15T01:31:17.597Z,0.00
2022-10-15T01:32:17.533Z,0.00
2022-10-15T01:33:17.519Z,0.00
2022-10-15T01:35:17.506Z,0.00
2022-10-15T01:36:17.498Z,0.00
2022-10-15T01:37:17.483Z,0.00
2022-10-15T01:38:17.467Z,0.00
2022-10-15T01:39:17.443Z,0.00
2022-10-15T01:40:17.439Z,0.00
2022-10-15T01:41:17.440Z,0.00
2022-10-15T01:42:17.449Z,0.00
2022-10-15T01:43:17.456Z,0.00
2022-10-15T01:44:17.381Z,0.00
2022-10-15T01:45:17.387Z,0.00
2022-10-15T01:46:17.360Z,0.00
2022-10-15T01:47:17.351Z,0.00
2022-10-15T01:48:17.372Z,0.00
2022-10-15T01:49:17.322Z,0.00
2022-10-15T01:50:17.301Z,0.00
2022-10-15T01:51:17.532Z,0.00
2022-10-15T01:52:17.336Z,0.00
2022-10-15T01:53:17.252Z,0.00
2022-10-15T01:54:17.265Z,0.00
2022-10-15T01:55:17.245Z,0.00
2022-10-15T01:56:17.233Z,0.00
2022-10-15T01:57:17.205Z,0.00
2022-10-15T01:58:17.215Z,0.00
2022-10-15T01:59:17.197Z,0.00
2022-10-15T02:00:17.284Z,0.00
2022-10-15T02:01:17.494Z,0.00
2022-10-15T02:02:17.138Z,0.00
2022-10-15T02:03:17.136Z,0.00
2022-10-15T02:04:17.118Z,0.00
2022-10-15T02:05:17.111Z,0.00
2022-10-15T02:06:17.211Z,0.00
2022-10-15T02:07:17.077Z,0.00
2022-10-15T02:08:17.089Z,0.00
2022-10-15T02:09:17.060Z,0.00
2022-10-15T02:10:17.060Z,0.00
2022-10-15T02:11:17.023Z,0.00
2022-10-15T02:12:17.049Z,0.00
2022-10-15T02:13:17.099Z,0.00
2022-10-15T02:14:16.991Z,0.00
2022-10-15T02:15:16.970Z,0.00
2022-10-15T02:16:16.976Z,0.00
2022-10-15T02:17:16.952Z,0.00
2022-10-15T02:18:16.990Z,0.00
2022-10-15T02:19:17.199Z,0.00
2022-10-15T02:20:16.915Z,0.00
2022-10-15T02:21:16.893Z,0.00
2022-10-15T02:22:16.912Z,0.00
2022-10-15T02:23:16.877Z,0.00
2022-10-15T02:24:16.893Z,0.00
2022-10-15T02:25:16.863Z,0.00
2022-10-15T02:26:16.846Z,0.00
2022-10-15T02:27:16.834Z,0.00
2022-10-15T02:28:17.008Z,0.00
2022-10-15T02:30:16.815Z,0.00
2022-10-15T02:31:16.776Z,0.00
2022-10-15T02:32:16.762Z,0.00
2022-10-15T02:33:16.738Z,0.00
2022-10-15T02:34:16.754Z,0.00
2022-10-15T02:35:16.763Z,0.00
2022-10-15T02:36:17.043Z,0.00
2022-10-15T02:37:16.699Z,0.00
2022-10-15T02:38:16.716Z,0.00
2022-10-15T02:39:16.671Z,0.00
2022-10-15T02:40:16.670Z,0.00
2022-10-15T02:41:16.639Z,0.00
2022-10-15T02:42:16.730Z,0.00
2022-10-15T02:43:16.631Z,0.00
2022-10-15T02:44:16.611Z,0.00
2022-10-15T02:45:16.590Z,0.00
2022-10-15T02:46:16.571Z,0.00
2022-10-15T02:47:16.641Z,0.00
2022-10-15T02:48:16.693Z,0.00
2022-10-15T02:49:16.539Z,0.00
2022-10-15T02:50:16.526Z,0.00
2022-10-15T02:51:16.502Z,0.00
2022-10-15T02:52:16.503Z,0.00
2022-10-15T02:53:16.505Z,0.00
2022-10-15T02:54:16.576Z,0.00
2022-10-15T02:55:16.456Z,0.00
2022-10-15T02:56:16.454Z,0.00
2022-10-15T02:57:16.444Z,0.00
2022-10-15T02:58:16.424Z,0.00
2022-10-15T02:59:16.415Z,0.00
2022-10-15T03:00:17.035Z,0.00
2022-10-15T03:01:16.450Z,0.00
2022-10-15T03:02:18.509Z,0.00
2022-10-15T03:03:16.367Z,0.00
2022-10-15T03:04:16.357Z,0.00
2022-10-15T03:05:16.375Z,0.00
2022-10-15T03:06:16.448Z,0.00
2022-10-15T03:07:16.319Z,0.00
2022-10-15T03:08:16.328Z,0.00
2022-10-15T03:09:16.304Z,0.00
2022-10-15T03:10:16.280Z,0.00
2022-10-15T03:11:16.274Z,0.00
2022-10-15T03:12:16.270Z,0.00
2022-10-15T03:13:16.244Z,0.00
2022-10-15T03:14:16.284Z,0.00
2022-10-15T03:15:16.204Z,0.00
2022-10-15T03:16:16.198Z,0.00
2022-10-15T03:17:16.184Z,0.00
2022-10-15T03:18:16.198Z,0.00
2022-10-15T03:19:16.174Z,0.00
2022-10-15T03:20:16.201Z,0.00
2022-10-15T03:21:16.143Z,0.00
2022-10-15T03:22:16.121Z,0.00
2022-10-15T03:23:16.103Z,0.00
2022-10-15T03:24:16.231Z,0.00
2022-10-15T03:25:16.079Z,0.00
2022-10-15T03:26:16.084Z,0.00
2022-10-15T03:27:16.057Z,0.00
2022-10-15T03:28:16.112Z,0.00
2022-10-15T03:29:16.040Z,0.00
2022-10-15T03:30:16.116Z,0.00
2022-10-15T03:31:16.006Z,0.00
2022-10-15T03:32:15.993Z,0.00
2022-10-15T03:33:15.970Z,0.00
2022-10-15T03:34:15.976Z,0.00
2022-10-15T03:35:15.982Z,0.00
2022-10-15T03:36:15.974Z,0.00
2022-10-15T03:37:15.919Z,0.00
2022-10-15T03:38:15.951Z,0.00
2022-10-15T03:39:15.891Z,0.00
2022-10-15T03:40:15.918Z,0.00
2022-10-15T03:41:16.210Z,0.00
2022-10-15T03:42:15.971Z,0.00
2022-10-15T03:43:15.850Z,0.00
2022-10-15T03:44:15.832Z,0.00
2022-10-15T03:45:15.824Z,0.00
2022-10-15T03:46:15.825Z,0.00
2022-10-15T03:47:15.823Z,0.00
2022-10-15T03:48:15.923Z,0.00
2022-10-15T03:49:15.764Z,0.00
2022-10-15T03:50:15.763Z,0.00
2022-10-15T03:51:18.522Z,0.00
2022-10-15T03:52:16.726Z,0.00
2022-10-15T03:53:15.722Z,0.00
2022-10-15T03:54:15.837Z,0.00
2022-10-15T03:55:15.696Z,0.00
2022-10-15T03:56:15.685Z,0.00
2022-10-15T03:57:15.685Z,0.00
2022-10-15T03:58:15.956Z,0.00
2022-10-15T03:59:15.648Z,0.00
2022-10-15T04:00:15.778Z,0.00
2022-10-15T04:01:15.670Z,0.00
2022-10-15T04:02:15.609Z,0.00
2022-10-15T04:03:15.592Z,0.00
2022-10-15T04:04:15.569Z,0.00
2022-10-15T04:05:15.827Z,0.00
2022-10-15T04:06:15.579Z,0.00
2022-10-15T04:07:15.541Z,0.00
2022-10-15T04:08:15.529Z,0.00
2022-10-15T04:09:15.523Z,0.00
2022-10-15T04:10:15.511Z,0.00
2022-10-15T04:11:15.492Z,0.00
2022-10-15T04:12:15.601Z,0.00
2022-10-15T04:13:15.452Z,0.00
2022-10-15T04:14:15.472Z,0.00
2022-10-15T04:15:15.444Z,0.00
2022-10-15T04:16:15.436Z,0.00
2022-10-15T04:17:15.413Z,0.00
2022-10-15T04:18:15.502Z,0.00
2022-10-15T04:19:15.483Z,0.00
2022-10-15T04:20:15.367Z,0.00
2022-10-15T04:21:15.376Z,0.00
2022-10-15T04:22:15.344Z,0.00
2022-10-15T04:23:15.346Z,0.00
2022-10-15T04:24:15.445Z,0.00
2022-10-15T04:25:15.586Z,0.00
2022-10-15T04:26:15.311Z,0.00
2022-10-15T04:28:15.285Z,0.00
2022-10-15T04:29:15.256Z,0.00
2022-10-15T04:30:15.378Z,0.00
2022-10-15T04:31:15.487Z,0.00
2022-10-15T04:32:15.223Z,0.00
2022-10-15T04:33:15.247Z,0.00
2022-10-15T04:34:15.197Z,0.00
2022-10-15T04:35:15.178Z,0.00
2022-10-15T04:36:15.301Z,0.00
2022-10-15T04:37:15.166Z,0.00
2022-10-15T04:38:15.131Z,0.00
2022-10-15T04:39:15.121Z,0.00
2022-10-15T04:40:15.123Z,0.00
2022-10-15T04:41:15.134Z,0.00
2022-10-15T04:42:15.129Z,0.00
2022-10-15T04:43:15.073Z,0.00
2022-10-15T04:44:15.071Z,0.00
2022-10-15T04:45:15.116Z,0.00
2022-10-15T04:46:15.044Z,0.00
2022-10-15T04:47:15.024Z,0.00
2022-10-15T04:48:15.032Z,0.00
2022-10-15T04:49:15.813Z,0.00
2022-10-15T04:50:14.985Z,0.00
2022-10-15T04:51:15.022Z,0.00
2022-10-15T04:52:14.954Z,0.00
2022-10-15T04:53:14.955Z,0.00
2022-10-15T04:54:14.979Z,0.00
2022-10-15T04:55:14.932Z,0.00
2022-10-15T04:56:14.906Z,0.00
2022-10-15T04:57:14.936Z,0.00
2022-10-15T04:58:14.885Z,0.00
2022-10-15T04:59:14.866Z,0.00
2022-10-15T05:00:15.307Z,0.00
2022-10-15T05:01:14.858Z,0.00
2022-10-15T05:02:14.895Z,0.00
2022-10-15T05:03:14.824Z,0.00
2022-10-15T05:04:14.808Z,0.00
2022-10-15T05:05:14.791Z,0.00
2022-10-15T05:06:14.901Z,0.00
2022-10-15T05:07:14.770Z,0.00
2022-10-15T05:08:14.765Z,0.00
2022-10-15T05:09:14.741Z,0.00
2022-10-15T05:10:14.724Z,0.00
2022-10-15T05:11:14.722Z,0.00
2022-10-15T05:12:14.727Z,0.00
2022-10-15T05:13:14.682Z,0.00
2022-10-15T05:14:14.692Z,0.00
2022-10-15T05:15:14.665Z,0.00
2022-10-15T05:16:14.651Z,0.00
2022-10-15T05:17:14.665Z,1.00
2022-10-15T05:18:14.766Z,1.00
2022-10-15T05:19:14.646Z,1.00
2022-10-15T05:20:14.596Z,1.00
2022-10-15T05:21:14.584Z,0.00
2022-10-15T05:22:14.566Z,0.00
2022-10-15T05:23:14.564Z,0.00
2022-10-15T05:24:14.567Z,2.00
2022-10-15T05:25:15.498Z,2.00
2022-10-15T05:26:14.528Z,2.00
2022-10-15T05:27:14.515Z,0.00
2022-10-15T05:28:14.505Z,4.00
2022-10-15T05:29:14.490Z,0.00
2022-10-15T05:30:14.600Z,2.00
2022-10-15T05:31:18.611Z,1.00
2022-10-15T05:32:14.493Z,3.00
2022-10-15T05:33:14.435Z,9.00
2022-10-15T05:34:14.433Z,13.00
2022-10-15T05:35:14.420Z,11.00
2022-10-15T05:36:14.443Z,4.00
2022-10-15T05:37:14.385Z,14.00
2022-10-15T05:38:14.388Z,25.00
2022-10-15T05:39:14.355Z,21.00
2022-10-15T05:40:17.052Z,17.00
2022-10-15T05:41:15.474Z,30.00
2022-10-15T05:42:14.312Z,35.00
2022-10-15T05:43:14.306Z,33.00
2022-10-15T05:44:14.291Z,46.00
2022-10-15T05:45:14.284Z,53.00
2022-10-15T05:46:14.261Z,60.00
2022-10-15T05:47:14.283Z,56.00
2022-10-15T05:48:14.246Z,84.00
2022-10-15T05:49:14.226Z,80.00
2022-10-15T05:50:14.221Z,85.00
2022-10-15T05:51:14.206Z,90.00
2022-10-15T05:52:14.188Z,105.00
2022-10-15T05:53:14.213Z,114.00
2022-10-15T05:54:14.164Z,134.00
2022-10-15T05:55:14.160Z,129.00
2022-10-15T05:56:14.138Z,158.00
2022-10-15T05:57:14.125Z,166.00
2022-10-15T05:58:14.108Z,184.00
2022-10-15T05:59:14.158Z,200.00
2022-10-15T06:00:14.094Z,227.00
2022-10-15T06:01:14.249Z,225.00
2022-10-15T06:02:14.671Z,230.00
2022-10-15T06:03:14.066Z,260.00
2022-10-15T06:04:14.046Z,297.00
2022-10-15T06:05:14.068Z,296.00
2022-10-15T06:06:14.064Z,318.00
2022-10-15T06:07:13.993Z,321.00
2022-10-15T06:08:13.980Z,342.00
2022-10-15T06:09:13.980Z,351.00
2022-10-15T06:10:13.962Z,371.00
2022-10-15T06:11:14.022Z,392.00
2022-10-15T06:12:13.948Z,415.00
2022-10-15T06:13:13.989Z,440.00
2022-10-15T06:14:13.903Z,449.00
2022-10-15T06:15:13.938Z,474.00
2022-10-15T06:16:15.570Z,476.00
2022-10-15T06:17:13.988Z,510.00
2022-10-15T06:18:13.887Z,530.00
2022-10-15T06:19:13.845Z,558.00
2022-10-15T06:20:13.824Z,575.00
2022-10-15T06:21:13.827Z,588.00
2022-10-15T06:22:13.807Z,613.00
2022-10-15T06:23:13.823Z,641.00
2022-10-15T06:24:13.775Z,658.00
2022-10-15T06:25:14.015Z,653.00
2022-10-15T06:26:13.748Z,679.00
2022-10-15T06:27:13.739Z,688.00
2022-10-15T06:28:13.728Z,744.00
2022-10-15T06:29:13.836Z,805.00
2022-10-15T06:30:13.729Z,851.00
2022-10-15T06:31:14.526Z,875.00
2022-10-15T06:32:13.670Z,946.00
2022-10-15T06:33:13.673Z,951.00
2022-10-15T06:34:13.648Z,1022.00
2022-10-15T06:35:13.656Z,1041.00
2022-10-15T06:36:13.715Z,1070.00
2022-10-15T06:37:13.612Z,1085.00
2022-10-15T06:38:13.605Z,1083.00
2022-10-15T06:39:13.652Z,1085.00
2022-10-15T06:40:13.834Z,1139.00
2022-10-15T06:41:13.590Z,1188.00
2022-10-15T06:42:13.561Z,1258.00
2022-10-15T06:43:13.561Z,1395.00
2022-10-15T06:44:13.524Z,1415.00
2022-10-15T06:45:15.800Z,1478.00
2022-10-15T06:46:14.324Z,1526.00
2022-10-15T06:47:13.604Z,1546.00
2022-10-15T06:48:13.483Z,1649.00
2022-10-15T06:49:13.454Z,1639.00
2022-10-15T06:50:13.445Z,1782.00
2022-10-15T06:51:13.435Z,1761.00
2022-10-15T06:52:14.009Z,1822.00
2022-10-15T06:53:13.525Z,1801.00
2022-10-15T06:54:14.371Z,1921.00
2022-10-15T06:55:13.377Z,1973.00
2022-10-15T06:56:13.396Z,1963.00
2022-10-15T06:57:13.360Z,1935.00
2022-10-15T06:58:13.345Z,1955.00
2022-10-15T06:59:13.438Z,2035.00
2022-10-15T07:00:13.515Z,1964.00
2022-10-15T07:01:13.298Z,1924.00
2022-10-15T07:02:13.567Z,1964.00
2022-10-15T07:03:13.278Z,1946.00
2022-10-15T07:04:13.279Z,2076.00
2022-10-15T07:05:13.272Z,2131.00
2022-10-15T07:06:13.661Z,2187.00
2022-10-15T07:07:13.244Z,2281.00
2022-10-15T07:08:16.930Z,2340.00
2022-10-15T07:09:14.201Z,2425.00
2022-10-15T07:10:13.219Z,2508.00
2022-10-15T07:11:13.295Z,2559.00
2022-10-15T07:12:13.191Z,2629.00
2022-10-15T07:13:13.152Z,2644.00
2022-10-15T07:14:13.154Z,2653.00
2022-10-15T07:15:13.113Z,2649.00
2022-10-15T07:16:13.106Z,2659.00
2022-10-15T07:17:13.211Z,2617.00
2022-10-15T07:18:13.078Z,2622.00
2022-10-15T07:19:13.073Z,2722.00
2022-10-15T07:20:13.061Z,2803.00
2022-10-15T07:21:13.046Z,2756.00
2022-10-15T07:22:13.058Z,2594.00
2022-10-15T07:23:13.136Z,2600.00
2022-10-15T07:24:13.006Z,2530.00
2022-10-15T07:25:12.997Z,2407.00
2022-10-15T07:26:13.006Z,2415.00
2022-10-15T07:27:19.837Z,2444.00
2022-10-15T07:28:13.988Z,2466.00
2022-10-15T07:29:12.948Z,2480.00
2022-10-15T07:30:12.932Z,2698.00
2022-10-15T07:31:13.653Z,2643.00
2022-10-15T07:32:12.909Z,2492.00
2022-10-15T07:33:12.892Z,2343.00
2022-10-15T07:34:12.921Z,2216.00
2022-10-15T07:35:12.861Z,2119.00
2022-10-15T07:36:12.860Z,2047.00
2022-10-15T07:37:12.872Z,2231.00
2022-10-15T07:38:12.822Z,2577.00
2022-10-15T07:39:12.812Z,3569.00
2022-10-15T07:40:12.831Z,3712.00
2022-10-15T07:41:12.791Z,3625.00
2022-10-15T07:43:12.755Z,3391.00
2022-10-15T07:44:12.767Z,3611.00
2022-10-15T07:45:12.744Z,3391.00
2022-10-15T07:46:12.759Z,3567.00
2022-10-15T07:47:12.725Z,3724.00
2022-10-15T07:48:12.713Z,3419.00
2022-10-15T07:49:12.691Z,3486.00
2022-10-15T07:50:12.679Z,2650.00
2022-10-15T07:51:12.698Z,2696.00
2022-10-15T07:52:12.688Z,3611.00
2022-10-15T07:53:12.664Z,3505.00
2022-10-15T07:54:12.620Z,3032.00
2022-10-15T07:55:12.639Z,3015.00
2022-10-15T07:56:12.592Z,2745.00
2022-10-15T07:57:12.579Z,2673.00
2022-10-15T07:58:12.600Z,2969.00
2022-10-15T07:59:12.606Z,2835.00
2022-10-15T08:00:12.540Z,2760.00
2022-10-15T08:01:12.532Z,2662.00
2022-10-15T08:02:12.520Z,3147.00
2022-10-15T08:03:12.501Z,3415.00
2022-10-15T08:04:12.514Z,3707.00
2022-10-15T08:05:12.482Z,4038.00
2022-10-15T08:06:12.463Z,3362.00
2022-10-15T08:07:12.452Z,2956.00
2022-10-15T08:08:12.438Z,3279.00
2022-10-15T08:09:12.516Z,3031.00
2022-10-15T08:10:12.513Z,3278.00
2022-10-15T08:11:12.426Z,3458.00
2022-10-15T08:12:12.384Z,3804.00
2022-10-15T08:13:12.492Z,3901.00
2022-10-15T08:14:12.377Z,4753.00
2022-10-15T08:15:12.352Z,5677.00
2022-10-15T08:16:12.356Z,5722.00
2022-10-15T08:17:12.445Z,5236.00
2022-10-15T08:18:12.315Z,4731.00
2022-10-15T08:19:12.348Z,4881.00
2022-10-15T08:20:12.286Z,5111.00
2022-10-15T08:21:12.762Z,5573.00
2022-10-15T08:22:12.369Z,6015.00
2022-10-15T08:23:12.248Z,6256.00
2022-10-15T08:24:12.234Z,5658.00
2022-10-15T08:25:12.220Z,5380.00
2022-10-15T08:26:12.209Z,5172.00
2022-10-15T08:27:12.191Z,4953.00
2022-10-15T08:28:12.247Z,5969.00
2022-10-15T08:29:12.240Z,4733.00
2022-10-15T08:30:12.153Z,4466.00
2022-10-15T08:31:12.141Z,4848.00
2022-10-15T08:32:12.120Z,5436.00
2022-10-15T08:33:12.121Z,5528.00
2022-10-15T08:34:12.132Z,5469.00
2022-10-15T08:35:12.082Z,5717.00
2022-10-15T08:36:12.072Z,5294.00
2022-10-15T08:37:12.107Z,4438.00
2022-10-15T08:38:14.802Z,4335.00
2022-10-15T08:39:13.143Z,4764.00
2022-10-15T08:40:12.027Z,5168.00
2022-10-15T08:41:12.154Z,5193.00
2022-10-15T08:42:12.004Z,5769.00
2022-10-15T08:43:12.016Z,6071.00
2022-10-15T08:44:11.968Z,6119.00
2022-10-15T08:45:12.075Z,5874.00
2022-10-15T08:46:11.983Z,5423.00
2022-10-15T08:47:11.935Z,5368.00
2022-10-15T08:48:11.925Z,5584.00
2022-10-15T08:49:11.916Z,5679.00
2022-10-15T08:50:11.907Z,5767.00
2022-10-15T08:51:12.179Z,5703.00
2022-10-15T08:52:11.868Z,5254.00
2022-10-15T08:53:11.861Z,5385.00
2022-10-15T08:54:11.860Z,5764.00
2022-10-15T08:55:11.870Z,6419.00
2022-10-15T08:56:11.820Z,6488.00
2022-10-15T08:57:11.901Z,6412.00
2022-10-15T08:58:11.799Z,6909.00
2022-10-15T08:59:11.777Z,7405.00
2022-10-15T09:00:11.789Z,7537.00
2022-10-15T09:01:11.754Z,7746.00
2022-10-15T09:02:11.741Z,7699.00
2022-10-15T09:03:11.818Z,7542.00
2022-10-15T09:04:11.723Z,7579.00
2022-10-15T09:05:11.702Z,7286.00
2022-10-15T09:06:11.699Z,7044.00
2022-10-15T09:07:11.674Z,7165.00
2022-10-15T09:08:11.667Z,7320.00
2022-10-15T09:09:11.765Z,7414.00
2022-10-15T09:10:11.662Z,7416.00
2022-10-15T09:11:11.645Z,7466.00
2022-10-15T09:12:11.615Z,7465.00
2022-10-15T09:13:15.475Z,7622.00
2022-10-15T09:14:11.595Z,7825.00
2022-10-15T09:15:11.621Z,7802.00
2022-10-15T09:16:11.562Z,7939.00
2022-10-15T09:17:11.547Z,8254.00
2022-10-15T09:18:11.538Z,8815.00
2022-10-15T09:19:11.788Z,10610.00
2022-10-15T09:20:11.510Z,8874.00
2022-10-15T09:21:11.525Z,8657.00
2022-10-15T09:22:11.488Z,8788.00
2022-10-15T09:23:12.299Z,8408.00
2022-10-15T09:24:11.461Z,8045.00
2022-10-15T09:25:11.451Z,7439.00
2022-10-15T09:26:11.430Z,5559.00
2022-10-15T09:27:11.521Z,4189.00
2022-10-15T09:28:11.402Z,4168.00
2022-10-15T09:29:11.398Z,3965.00
2022-10-15T09:30:11.395Z,3657.00
2022-10-15T09:31:11.363Z,4527.00
2022-10-15T09:32:11.353Z,4763.00
2022-10-15T09:33:11.458Z,4462.00
2022-10-15T09:34:11.325Z,4535.00
2022-10-15T09:35:11.315Z,6211.00
2022-10-15T09:36:11.304Z,6519.00
2022-10-15T09:37:11.304Z,6477.00
2022-10-15T09:38:11.265Z,6010.00
2022-10-15T09:39:11.775Z,6485.00
2022-10-15T09:40:11.247Z,7085.00
2022-10-15T09:41:11.241Z,7576.00
2022-10-15T09:42:11.241Z,7347.00
2022-10-15T09:43:11.206Z,6477.00
2022-10-15T09:44:11.198Z,6254.00
2022-10-15T09:45:11.278Z,6180.00
2022-10-15T09:46:11.178Z,5801.00
2022-10-15T09:47:11.160Z,5751.00
2022-10-15T09:48:11.151Z,6578.00
2022-10-15T09:49:11.129Z,6209.00
2022-10-15T09:50:11.207Z,5679.00
2022-10-15T09:51:11.150Z,4512.00
2022-10-15T09:52:11.092Z,3531.00
2022-10-15T09:53:11.074Z,2949.00
2022-10-15T09:54:11.071Z,2862.00
2022-10-15T09:55:11.054Z,3390.00
2022-10-15T09:56:11.033Z,4035.00
2022-10-15T09:57:11.125Z,5077.00
2022-10-15T09:58:11.014Z,5501.00
2022-10-15T09:59:11.068Z,5365.00
2022-10-15T10:00:10.985Z,5306.00
2022-10-15T10:01:10.976Z,5056.00
2022-10-15T10:02:11.022Z,5738.00
2022-10-15T10:03:11.003Z,7507.00
2022-10-15T10:04:10.946Z,10227.00
2022-10-15T10:05:10.916Z,11889.00
2022-10-15T10:06:10.919Z,11947.00
2022-10-15T10:07:10.897Z,11785.00
2022-10-15T10:08:10.883Z,10617.00
2022-10-15T10:09:10.898Z,9248.00
2022-10-15T10:10:10.857Z,9368.00
2022-10-15T10:11:10.869Z,10254.00
2022-10-15T10:12:10.838Z,10742.00
2022-10-15T10:13:11.298Z,9745.00
2022-10-15T10:14:10.799Z,11739.00
2022-10-15T10:15:10.810Z,11749.00
2022-10-15T10:16:10.787Z,9628.00
2022-10-15T10:17:10.763Z,9495.00
2022-10-15T10:18:10.759Z,9325.00
2022-10-15T10:19:10.736Z,9272.00
2022-10-15T10:20:10.732Z,9433.00
2022-10-15T10:21:11.791Z,9715.00
2022-10-15T10:22:10.715Z,10204.00
2022-10-15T10:23:10.693Z,10845.00
2022-10-15T10:24:14.710Z,11517.00
2022-10-15T10:25:10.664Z,12554.00
2022-10-15T10:26:10.664Z,11237.00
2022-10-15T10:27:10.770Z,10832.00
2022-10-15T10:28:10.625Z,10436.00
2022-10-15T10:29:22.400Z,9804.00
2022-10-15T10:30:11.622Z,8820.00
2022-10-15T10:31:10.611Z,8185.00
2022-10-15T10:32:10.590Z,9682.00
2022-10-15T10:33:10.658Z,10272.00
2022-10-15T10:34:10.548Z,10468.00
2022-10-15T10:35:10.531Z,11081.00
2022-10-15T10:37:10.499Z,10465.00
2022-10-15T10:38:10.489Z,9951.00
2022-10-15T10:39:10.750Z,9611.00
2022-10-15T10:40:10.470Z,8580.00
2022-10-15T10:41:10.452Z,8421.00
2022-10-15T10:42:10.441Z,8587.00
2022-10-15T10:43:10.427Z,7963.00
2022-10-15T10:44:10.422Z,7204.00
2022-10-15T10:45:12.891Z,5988.00
2022-10-15T10:46:10.393Z,5982.00
2022-10-15T10:47:10.373Z,6020.00
2022-10-15T10:48:10.373Z,6218.00
2022-10-15T10:49:10.353Z,5849.00
2022-10-15T10:50:10.343Z,5451.00
2022-10-15T10:51:12.002Z,6400.00
2022-10-15T10:52:11.315Z,7978.00
2022-10-15T10:53:10.294Z,9121.00
2022-10-15T10:54:10.298Z,8915.00
2022-10-15T10:55:10.277Z,9624.00
2022-10-15T10:56:10.265Z,10809.00
2022-10-15T10:57:10.295Z,10777.00
2022-10-15T10:58:10.240Z,10831.00
2022-10-15T10:59:10.236Z,11041.00
2022-10-15T11:00:10.215Z,10977.00
2022-10-15T11:01:10.260Z,10919.00
2022-10-15T11:02:10.188Z,11212.00
2022-10-15T11:03:10.280Z,11889.00
2022-10-15T11:04:11.876Z,12630.00
2022-10-15T11:05:10.151Z,12868.00
2022-10-15T11:06:10.134Z,11325.00
2022-10-15T11:07:10.126Z,10605.00
2022-10-15T11:08:10.118Z,10456.00
2022-10-15T11:09:10.130Z,10250.00
2022-10-15T11:10:10.112Z,10153.00
2022-10-15T11:11:10.063Z,10457.00
2022-10-15T11:12:10.064Z,10757.00
2022-10-15T11:14:10.033Z,10652.00
2022-10-15T11:15:10.336Z,10474.00
2022-10-15T11:16:10.006Z,8030.00
2022-10-15T11:17:10.013Z,9316.00
2022-10-15T11:18:09.985Z,10821.00
2022-10-15T11:19:18.874Z,12166.00
2022-10-15T11:20:36.779Z,9472.00
2022-10-15T11:21:10.946Z,9051.00
2022-10-15T11:22:09.981Z,11168.00
2022-10-15T11:23:09.914Z,11313.00
2022-10-15T11:24:09.897Z,10376.00
2022-10-15T11:25:09.898Z,9573.00
2022-10-15T11:26:09.998Z,9081.00
2022-10-15T11:27:11.242Z,9634.00
2022-10-15T11:28:09.851Z,11574.00
2022-10-15T11:29:09.841Z,11203.00
2022-10-15T11:30:09.832Z,13669.00
2022-10-15T11:31:09.907Z,11107.00
2022-10-15T11:32:15.209Z,10642.00
2022-10-15T11:33:11.286Z,8947.00
2022-10-15T11:34:09.781Z,7844.00
2022-10-15T11:35:09.762Z,7602.00
2022-10-15T11:36:09.755Z,8040.00
2022-10-15T11:37:09.733Z,8663.00
2022-10-15T11:38:09.751Z,9324.00
2022-10-15T11:39:09.704Z,9954.00
2022-10-15T11:40:09.707Z,9753.00
2022-10-15T11:41:10.504Z,9059.00
2022-10-15T11:42:09.673Z,8628.00
2022-10-15T11:43:09.674Z,9017.00
2022-10-15T11:44:09.670Z,9652.00
2022-10-15T11:45:09.806Z,10825.00
2022-10-15T11:46:09.636Z,11704.00
2022-10-15T11:47:09.607Z,12251.00
2022-10-15T11:48:09.596Z,12737.00
2022-10-15T11:49:09.587Z,12246.00
2022-10-15T11:50:09.681Z,11749.00
2022-10-15T11:51:09.561Z,10900.00
2022-10-15T11:52:09.560Z,9500.00
2022-10-15T11:53:09.535Z,7739.00
2022-10-15T11:54:09.524Z,6398.00
2022-10-15T11:55:09.502Z,6098.00
2022-10-15T11:56:09.533Z,6233.00
2022-10-15T11:57:09.479Z,5995.00
2022-10-15T11:58:09.473Z,4838.00
2022-10-15T11:59:09.444Z,3678.00
2022-10-15T12:00:09.596Z,3387.00
2022-10-15T12:01:09.423Z,3446.00
2022-10-15T12:02:09.447Z,3700.00
2022-10-15T12:03:09.449Z,4125.00
2022-10-15T12:04:09.451Z,4427.00
2022-10-15T12:05:09.386Z,4411.00
2022-10-15T12:06:09.366Z,4833.00
2022-10-15T12:07:09.616Z,5390.00
2022-10-15T12:08:09.461Z,6306.00
2022-10-15T12:09:10.286Z,7272.00
2022-10-15T12:10:09.596Z,8060.00
2022-10-15T12:11:09.299Z,8014.00
2022-10-15T12:12:09.288Z,7540.00
2022-10-15T12:13:09.538Z,6823.00
2022-10-15T12:14:11.244Z,6487.00
2022-10-15T12:15:09.259Z,5944.00
2022-10-15T12:16:09.245Z,5745.00
2022-10-15T12:18:09.201Z,6487.00
2022-10-15T12:19:09.191Z,6588.00
2022-10-15T12:20:09.312Z,6387.00
2022-10-15T12:21:09.176Z,6392.00
2022-10-15T12:22:09.852Z,6614.00
2022-10-15T12:23:09.145Z,6585.00
2022-10-15T12:24:09.125Z,6382.00
2022-10-15T12:25:09.117Z,5832.00
2022-10-15T12:26:09.246Z,6140.00
2022-10-15T12:27:09.113Z,6082.00
2022-10-15T12:28:09.085Z,5920.00
2022-10-15T12:29:09.783Z,5888.00
2022-10-15T12:30:09.072Z,5157.00
2022-10-15T12:31:09.836Z,5274.00
2022-10-15T12:32:09.056Z,4905.00
2022-10-15T12:33:09.013Z,4828.00
2022-10-15T12:34:09.687Z,4284.00
2022-10-15T12:35:09.034Z,4241.00
2022-10-15T12:36:08.979Z,3756.00
2022-10-15T12:37:08.968Z,4008.00
2022-10-15T12:38:08.967Z,4057.00
2022-10-15T12:39:17.563Z,3752.00
2022-10-15T12:40:09.946Z,4186.00
2022-10-15T12:41:08.909Z,4601.00
2022-10-15T12:42:08.901Z,4807.00
2022-10-15T12:43:08.900Z,5442.00
2022-10-15T12:44:08.913Z,5583.00